sensor_id;sensor_type;location;lat;lon;timestamp;temperature;humidity
69747;DHT22;57018;50.278;19.134;2022-08-25T06:41:03;25.00;79.20
69747;DHT22;57018;50.278;19.134;2022-08-25T06:43:31;25.10;78.60
69747;DHT22;57018;50.278;19.134;2022-08-25T06:46:11;25.10;78.80
69747;DHT22;57018;50.278;19.134;2022-08-25T06:48:38;25.20;78.60
69747;DHT22;57018;50.278;19.134;2022-08-25T06:51:07;25.30;78.00
69747;DHT22;57018;50.278;19.134;2022-08-25T06:53:34;25.40;78.30
69747;DHT22;57018;50.278;19.134;2022-08-25T06:56:01;25.50;78.00
69747;DHT22;57018;50.278;19.134;2022-08-25T06:58:27;25.40;77.50
69747;DHT22;57018;50.278;19.134;2022-08-25T07:00:55;25.40;77.50
69747;DHT22;57018;50.278;19.134;2022-08-25T07:03:21;25.50;77.70
69747;DHT22;57018;50.278;19.134;2022-08-25T07:05:52;25.60;77.20
69747;DHT22;57018;50.278;19.134;2022-08-25T07:08:20;25.50;76.90
69747;DHT22;57018;50.278;19.134;2022-08-25T07:10:46;25.50;77.10
69747;DHT22;57018;50.278;19.134;2022-08-25T07:13:12;25.30;77.50
69747;DHT22;57018;50.278;19.134;2022-08-25T07:15:39;25.10;77.70
69747;DHT22;57018;50.278;19.134;2022-08-25T07:18:06;25.10;77.80
69747;DHT22;57018;50.278;19.134;2022-08-25T07:20:37;25.20;78.10
69747;DHT22;57018;50.278;19.134;2022-08-25T07:23:04;25.40;77.40
69747;DHT22;57018;50.278;19.134;2022-08-25T07:25:30;25.30;77.50
69747;DHT22;57018;50.278;19.134;2022-08-25T07:27:57;25.30;77.50
69747;DHT22;57018;50.278;19.134;2022-08-25T07:30:23;25.20;76.90
69747;DHT22;57018;50.278;19.134;2022-08-25T07:32:50;25.40;77.20
69747;DHT22;57018;50.278;19.134;2022-08-25T07:35:16;25.50;77.00
69747;DHT22;57018;50.278;19.134;2022-08-25T07:37:44;25.40;76.80
69747;DHT22;57018;50.278;19.134;2022-08-25T07:40:15;25.40;76.80
69747;DHT22;57018;50.278;19.134;2022-08-25T07:42:43;25.60;76.80
69747;DHT22;57018;50.278;19.134;2022-08-25T07:45:10;25.40;76.90
69747;DHT22;57018;50.278;19.134;2022-08-25T07:47:37;25.40;76.80
69747;DHT22;57018;50.278;19.134;2022-08-25T07:50:06;25.30;77.20
69747;DHT22;57018;50.278;19.134;2022-08-25T07:52:33;25.30;77.20
69747;DHT22;57018;50.278;19.134;2022-08-25T07:55:00;25.10;77.20
69747;DHT22;57018;50.278;19.134;2022-08-25T07:57:27;25.20;77.80
69747;DHT22;57018;50.278;19.134;2022-08-25T07:59:55;25.40;77.50
69747;DHT22;57018;50.278;19.134;2022-08-25T08:02:24;25.50;77.00
69747;DHT22;57018;50.278;19.134;2022-08-25T08:04:52;25.50;76.60
69747;DHT22;57018;50.278;19.134;2022-08-25T08:07:21;25.80;76.30
69747;DHT22;57018;50.278;19.134;2022-08-25T08:09:47;26.00;75.90
69747;DHT22;57018;50.278;19.134;2022-08-25T08:12:13;26.00;75.70
69747;DHT22;57018;50.278;19.134;2022-08-25T08:14:39;26.10;75.00
69747;DHT22;57018;50.278;19.134;2022-08-25T08:17:07;26.20;75.20
69747;DHT22;57018;50.278;19.134;2022-08-25T08:19:34;26.10;75.40
69747;DHT22;57018;50.278;19.134;2022-08-25T08:22:02;26.20;75.50
69747;DHT22;57018;50.278;19.134;2022-08-25T08:24:29;26.40;74.10
69747;DHT22;57018;50.278;19.134;2022-08-25T08:26:55;26.30;75.00
69747;DHT22;57018;50.278;19.134;2022-08-25T08:29:22;26.40;73.80
69747;DHT22;57018;50.278;19.134;2022-08-25T08:31:48;26.50;73.70
69747;DHT22;57018;50.278;19.134;2022-08-25T08:34:15;26.20;74.60
69747;DHT22;57018;50.278;19.134;2022-08-25T08:36:41;26.50;73.30
69747;DHT22;57018;50.278;19.134;2022-08-25T08:39:07;26.40;73.50
69747;DHT22;57018;50.278;19.134;2022-08-25T08:41:40;26.50;73.50
69747;DHT22;57018;50.278;19.134;2022-08-25T08:47:35;26.70;72.80
69747;DHT22;57018;50.278;19.134;2022-08-25T08:50:24;26.40;73.30
69747;DHT22;57018;50.278;19.134;2022-08-25T08:52:57;26.50;73.00
69747;DHT22;57018;50.278;19.134;2022-08-25T08:55:32;26.70;73.20
69747;DHT22;57018;50.278;19.134;2022-08-25T08:58:05;26.50;73.60
69747;DHT22;57018;50.278;19.134;2022-08-25T09:00:38;26.60;73.40
69747;DHT22;57018;50.278;19.134;2022-08-25T09:05:48;26.70;72.40
69747;DHT22;57018;50.278;19.134;2022-08-25T09:08:15;26.80;72.50
69747;DHT22;57018;50.278;19.134;2022-08-25T09:11:00;27.00;72.60
69747;DHT22;57018;50.278;19.134;2022-08-25T09:13:35;27.10;72.20
69747;DHT22;57018;50.278;19.134;2022-08-25T09:22:16;27.10;71.50
69747;DHT22;57018;50.278;19.134;2022-08-25T09:30:31;27.10;71.60
69747;DHT22;57018;50.278;19.134;2022-08-25T09:32:56;27.20;71.00
69747;DHT22;57018;50.278;19.134;2022-08-25T09:35:32;27.30;70.60
69747;DHT22;57018;50.278;19.134;2022-08-25T09:40:46;27.30;70.00
69747;DHT22;57018;50.278;19.134;2022-08-25T09:51:01;27.60;69.90
69747;DHT22;57018;50.278;19.134;2022-08-25T09:53:29;27.90;70.10
69747;DHT22;57018;50.278;19.134;2022-08-25T09:56:02;27.90;69.70
69747;DHT22;57018;50.278;19.134;2022-08-25T09:58:25;28.00;68.90
69747;DHT22;57018;50.278;19.134;2022-08-25T10:01:10;28.20;68.90
69747;DHT22;57018;50.278;19.134;2022-08-25T10:03:35;28.20;68.30
69747;DHT22;57018;50.278;19.134;2022-08-25T10:06:12;28.20;67.90
69747;DHT22;57018;50.278;19.134;2022-08-25T10:11:31;28.30;67.90
69747;DHT22;57018;50.278;19.134;2022-08-25T10:14:01;28.20;66.40
69747;DHT22;57018;50.278;19.134;2022-08-25T10:16:30;28.30;67.20
69747;DHT22;57018;50.278;19.134;2022-08-25T10:19:27;28.50;67.10
69747;DHT22;57018;50.278;19.134;2022-08-25T10:24:25;28.40;66.20
69747;DHT22;57018;50.278;19.134;2022-08-25T10:34:57;28.50;66.90
69747;DHT22;57018;50.278;19.134;2022-08-25T10:42:38;28.50;65.70
69747;DHT22;57018;50.278;19.134;2022-08-25T10:51:13;28.90;63.90
69747;DHT22;57018;50.278;19.134;2022-08-25T10:59:06;29.10;61.80
69747;DHT22;57018;50.278;19.134;2022-08-25T11:04:35;29.20;60.10
69747;DHT22;57018;50.278;19.134;2022-08-25T11:09:51;29.30;59.60
69747;DHT22;57018;50.278;19.134;2022-08-25T11:12:25;29.50;57.90
69747;DHT22;57018;50.278;19.134;2022-08-25T11:14:59;29.50;56.50
69747;DHT22;57018;50.278;19.134;2022-08-25T11:17:41;29.50;56.90
69747;DHT22;57018;50.278;19.134;2022-08-25T11:20:13;29.10;56.40
69747;DHT22;57018;50.278;19.134;2022-08-25T11:22:45;29.00;56.50
69747;DHT22;57018;50.278;19.134;2022-08-25T11:25:18;29.00;56.70
69747;DHT22;57018;50.278;19.134;2022-08-25T11:30:50;29.30;55.50
69747;DHT22;57018;50.278;19.134;2022-08-25T11:33:22;29.40;55.70
69747;DHT22;57018;50.278;19.134;2022-08-25T11:36:00;29.40;54.50
69747;DHT22;57018;50.278;19.134;2022-08-25T11:42:03;29.50;54.10
69747;DHT22;57018;50.278;19.134;2022-08-25T11:52:42;29.40;54.40
69747;DHT22;57018;50.278;19.134;2022-08-25T11:57:42;29.40;54.00
69747;DHT22;57018;50.278;19.134;2022-08-25T12:00:38;29.50;52.50
69747;DHT22;57018;50.278;19.134;2022-08-25T12:03:44;29.60;52.80
69747;DHT22;57018;50.278;19.134;2022-08-25T12:05:49;29.50;51.80
69747;DHT22;57018;50.278;19.134;2022-08-25T12:08:46;29.50;52.30
69747;DHT22;57018;50.278;19.134;2022-08-25T12:11:01;29.70;52.60
69747;DHT22;57018;50.278;19.134;2022-08-25T12:13:46;29.60;52.30
69747;DHT22;57018;50.278;19.134;2022-08-25T12:24:52;29.60;51.60
69747;DHT22;57018;50.278;19.134;2022-08-25T12:27:28;29.40;51.50
69747;DHT22;57018;50.278;19.134;2022-08-25T12:30:31;29.40;51.90
69747;DHT22;57018;50.278;19.134;2022-08-25T12:36:14;29.30;51.70
69747;DHT22;57018;50.278;19.134;2022-08-25T12:43:47;29.70;51.20
69747;DHT22;57018;50.278;19.134;2022-08-25T12:56:59;29.80;49.90
69747;DHT22;57018;50.278;19.134;2022-08-25T12:59:37;30.00;48.00
69747;DHT22;57018;50.278;19.134;2022-08-25T13:10:15;29.80;49.90
69747;DHT22;57018;50.278;19.134;2022-08-25T13:15:14;30.00;49.00
69747;DHT22;57018;50.278;19.134;2022-08-25T13:17:41;30.00;49.80
69747;DHT22;57018;50.278;19.134;2022-08-25T13:20:12;30.00;49.30
69747;DHT22;57018;50.278;19.134;2022-08-25T13:22:39;30.00;48.60
69747;DHT22;57018;50.278;19.134;2022-08-25T13:25:06;30.00;47.70
69747;DHT22;57018;50.278;19.134;2022-08-25T13:30:18;29.90;47.40
69747;DHT22;57018;50.278;19.134;2022-08-25T13:32:39;30.10;47.70
69747;DHT22;57018;50.278;19.134;2022-08-25T13:35:29;30.10;47.70
69747;DHT22;57018;50.278;19.134;2022-08-25T13:37:53;30.20;46.90
69747;DHT22;57018;50.278;19.134;2022-08-25T13:40:24;30.20;46.10
69747;DHT22;57018;50.278;19.134;2022-08-25T13:42:55;30.30;46.00
69747;DHT22;57018;50.278;19.134;2022-08-25T13:45:26;30.30;47.00
69747;DHT22;57018;50.278;19.134;2022-08-25T13:47:49;30.10;46.90
69747;DHT22;57018;50.278;19.134;2022-08-25T13:55:49;30.20;46.80
69747;DHT22;57018;50.278;19.134;2022-08-25T13:58:19;30.30;46.40
69747;DHT22;57018;50.278;19.134;2022-08-25T14:06:10;30.10;44.50
69747;DHT22;57018;50.278;19.134;2022-08-25T14:08:40;30.10;45.00
69747;DHT22;57018;50.278;19.134;2022-08-25T14:11:15;30.10;44.70
69747;DHT22;57018;50.278;19.134;2022-08-25T14:13:44;30.00;45.10
69747;DHT22;57018;50.278;19.134;2022-08-25T14:16:22;30.10;44.70
69747;DHT22;57018;50.278;19.134;2022-08-25T14:18:56;30.10;45.10
69747;DHT22;57018;50.278;19.134;2022-08-25T14:21:28;30.10;45.10
69747;DHT22;57018;50.278;19.134;2022-08-25T14:23:56;30.00;44.30
69747;DHT22;57018;50.278;19.134;2022-08-25T14:26:23;29.90;44.20
69747;DHT22;57018;50.278;19.134;2022-08-25T14:28:50;29.80;44.20
69747;DHT22;57018;50.278;19.134;2022-08-25T14:31:32;29.90;44.00
69747;DHT22;57018;50.278;19.134;2022-08-25T14:34:04;30.00;44.20
69747;DHT22;57018;50.278;19.134;2022-08-25T14:36:33;30.00;43.50
69747;DHT22;57018;50.278;19.134;2022-08-25T14:39:00;29.90;44.20
69747;DHT22;57018;50.278;19.134;2022-08-25T14:41:33;30.00;43.40
69747;DHT22;57018;50.278;19.134;2022-08-25T14:44:03;29.80;43.40
69747;DHT22;57018;50.278;19.134;2022-08-25T14:46:33;29.80;43.80
69747;DHT22;57018;50.278;19.134;2022-08-25T14:49:03;29.80;43.30
69747;DHT22;57018;50.278;19.134;2022-08-25T14:51:31;29.90;43.90
69747;DHT22;57018;50.278;19.134;2022-08-25T14:54:03;29.80;43.70
69747;DHT22;57018;50.278;19.134;2022-08-25T14:56:31;29.80;42.70
69747;DHT22;57018;50.278;19.134;2022-08-25T14:58:59;29.90;43.70
69747;DHT22;57018;50.278;19.134;2022-08-25T15:01:25;29.90;43.50
69747;DHT22;57018;50.278;19.134;2022-08-25T15:03:54;29.80;44.50
69747;DHT22;57018;50.278;19.134;2022-08-25T15:06:22;29.90;44.10
69747;DHT22;57018;50.278;19.134;2022-08-25T15:08:48;29.70;43.30
69747;DHT22;57018;50.278;19.134;2022-08-25T15:11:34;29.70;42.90
69747;DHT22;57018;50.278;19.134;2022-08-25T15:14:01;29.80;42.30
69747;DHT22;57018;50.278;19.134;2022-08-25T15:16:54;29.60;43.10
69747;DHT22;57018;50.278;19.134;2022-08-25T15:19:20;29.70;43.60
69747;DHT22;57018;50.278;19.134;2022-08-25T15:21:47;29.50;43.60
69747;DHT22;57018;50.278;19.134;2022-08-25T15:24:15;29.60;43.80
69747;DHT22;57018;50.278;19.134;2022-08-25T15:26:47;29.60;44.00
69747;DHT22;57018;50.278;19.134;2022-08-25T15:29:16;29.70;44.30
69747;DHT22;57018;50.278;19.134;2022-08-25T15:31:43;29.50;44.70
69747;DHT22;57018;50.278;19.134;2022-08-25T15:34:10;29.50;43.60
69747;DHT22;57018;50.278;19.134;2022-08-25T15:36:37;29.40;43.60
69747;DHT22;57018;50.278;19.134;2022-08-25T15:39:04;29.40;44.40
69747;DHT22;57018;50.278;19.134;2022-08-25T15:41:31;29.50;44.00
69747;DHT22;57018;50.278;19.134;2022-08-25T15:43:57;29.30;44.90
69747;DHT22;57018;50.278;19.134;2022-08-25T15:46:28;29.30;45.10
69747;DHT22;57018;50.278;19.134;2022-08-25T15:48:56;29.40;45.30
69747;DHT22;57018;50.278;19.134;2022-08-25T15:51:29;29.30;45.10
69747;DHT22;57018;50.278;19.134;2022-08-25T15:53:53;29.40;44.90
69747;DHT22;57018;50.278;19.134;2022-08-25T15:56:22;29.40;44.80
69747;DHT22;57018;50.278;19.134;2022-08-25T15:58:49;29.20;45.10
69747;DHT22;57018;50.278;19.134;2022-08-25T16:01:18;29.30;44.70
69747;DHT22;57018;50.278;19.134;2022-08-25T16:03:45;29.20;45.00
69747;DHT22;57018;50.278;19.134;2022-08-25T16:06:12;29.20;45.10
69747;DHT22;57018;50.278;19.134;2022-08-25T16:08:38;29.20;45.30
69747;DHT22;57018;50.278;19.134;2022-08-25T16:11:05;29.10;46.70
69747;DHT22;57018;50.278;19.134;2022-08-25T16:13:31;29.10;46.50
69747;DHT22;57018;50.278;19.134;2022-08-25T16:15:58;29.10;46.70
69747;DHT22;57018;50.278;19.134;2022-08-25T16:18:25;29.10;47.70
69747;DHT22;57018;50.278;19.134;2022-08-25T16:20:51;29.00;47.60
69747;DHT22;57018;50.278;19.134;2022-08-25T16:23:18;29.10;48.50
69747;DHT22;57018;50.278;19.134;2022-08-25T16:25:46;29.00;48.60
69747;DHT22;57018;50.278;19.134;2022-08-25T16:28:14;28.80;49.20
69747;DHT22;57018;50.278;19.134;2022-08-25T16:30:46;28.90;49.50
69747;DHT22;57018;50.278;19.134;2022-08-25T16:33:14;28.80;49.50
69747;DHT22;57018;50.278;19.134;2022-08-25T16:35:42;28.80;50.40
69747;DHT22;57018;50.278;19.134;2022-08-25T16:38:09;28.70;50.70
69747;DHT22;57018;50.278;19.134;2022-08-25T16:40:39;28.60;50.90
69747;DHT22;57018;50.278;19.134;2022-08-25T16:43:06;28.60;50.80
69747;DHT22;57018;50.278;19.134;2022-08-25T16:45:33;28.70;50.70
69747;DHT22;57018;50.278;19.134;2022-08-25T16:47:59;28.50;51.10
69747;DHT22;57018;50.278;19.134;2022-08-25T16:50:25;28.50;51.80
69747;DHT22;57018;50.278;19.134;2022-08-25T16:52:51;28.30;52.20
69747;DHT22;57018;50.278;19.134;2022-08-25T16:55:36;28.30;52.20
69747;DHT22;57018;50.278;19.134;2022-08-25T16:58:02;28.20;52.80
69747;DHT22;57018;50.278;19.134;2022-08-25T17:00:29;28.10;53.30
69747;DHT22;57018;50.278;19.134;2022-08-25T17:02:58;28.00;53.60
69747;DHT22;57018;50.278;19.134;2022-08-25T17:05:27;28.00;53.70
69747;DHT22;57018;50.278;19.134;2022-08-25T17:07:55;27.90;54.20
69747;DHT22;57018;50.278;19.134;2022-08-25T17:10:41;27.80;54.60
69747;DHT22;57018;50.278;19.134;2022-08-25T17:13:09;27.60;55.10
69747;DHT22;57018;50.278;19.134;2022-08-25T17:15:44;27.50;55.60
69747;DHT22;57018;50.278;19.134;2022-08-25T17:18:12;27.40;56.40
69747;DHT22;57018;50.278;19.134;2022-08-25T17:20:39;27.40;56.50
69747;DHT22;57018;50.278;19.134;2022-08-25T17:23:06;27.20;57.30
69747;DHT22;57018;50.278;19.134;2022-08-25T17:25:34;27.10;57.60
69747;DHT22;57018;50.278;19.134;2022-08-25T17:28:00;26.90;57.70
69747;DHT22;57018;50.278;19.134;2022-08-25T17:30:28;26.70;58.50
69747;DHT22;57018;50.278;19.134;2022-08-25T17:32:54;26.60;59.30
69747;DHT22;57018;50.278;19.134;2022-08-25T17:35:20;26.40;59.70
69747;DHT22;57018;50.278;19.134;2022-08-25T17:37:47;26.30;61.10
69747;DHT22;57018;50.278;19.134;2022-08-25T17:40:13;26.20;62.20
69747;DHT22;57018;50.278;19.134;2022-08-25T17:42:39;26.10;63.00
69747;DHT22;57018;50.278;19.134;2022-08-25T17:45:05;26.00;63.20
69747;DHT22;57018;50.278;19.134;2022-08-25T17:47:31;26.00;63.30
69747;DHT22;57018;50.278;19.134;2022-08-25T17:49:58;25.90;63.50
69747;DHT22;57018;50.278;19.134;2022-08-25T17:52:24;25.80;63.90
69747;DHT22;57018;50.278;19.134;2022-08-25T17:54:50;25.80;64.00
69747;DHT22;57018;50.278;19.134;2022-08-25T17:57:17;25.80;64.20
69747;DHT22;57018;50.278;19.134;2022-08-25T17:59:44;25.70;64.30
69747;DHT22;57018;50.278;19.134;2022-08-25T18:02:11;25.60;64.60
69747;DHT22;57018;50.278;19.134;2022-08-25T18:04:37;25.50;64.70
69747;DHT22;57018;50.278;19.134;2022-08-25T18:07:04;25.40;65.60
69747;DHT22;57018;50.278;19.134;2022-08-25T18:09:30;25.30;65.70
69747;DHT22;57018;50.278;19.134;2022-08-25T18:11:56;25.40;65.80
69747;DHT22;57018;50.278;19.134;2022-08-25T18:14:24;25.40;65.80
69747;DHT22;57018;50.278;19.134;2022-08-25T18:16:50;25.30;66.00
69747;DHT22;57018;50.278;19.134;2022-08-25T18:19:18;25.20;65.70
69747;DHT22;57018;50.278;19.134;2022-08-25T18:21:44;25.20;66.20
69747;DHT22;57018;50.278;19.134;2022-08-25T18:24:10;25.20;66.10
69747;DHT22;57018;50.278;19.134;2022-08-25T18:26:36;25.10;66.20
69747;DHT22;57018;50.278;19.134;2022-08-25T18:29:03;25.00;66.20
69747;DHT22;57018;50.278;19.134;2022-08-25T18:31:30;25.00;66.10
69747;DHT22;57018;50.278;19.134;2022-08-25T18:33:56;24.90;66.40
69747;DHT22;57018;50.278;19.134;2022-08-25T18:36:22;24.90;66.50
69747;DHT22;57018;50.278;19.134;2022-08-25T18:38:49;24.80;66.60
69747;DHT22;57018;50.278;19.134;2022-08-25T18:41:39;24.80;66.70
69747;DHT22;57018;50.278;19.134;2022-08-25T18:44:05;24.70;66.70
69747;DHT22;57018;50.278;19.134;2022-08-25T18:46:32;24.60;66.50
69747;DHT22;57018;50.278;19.134;2022-08-25T18:48:58;24.60;66.60
69747;DHT22;57018;50.278;19.134;2022-08-25T18:51:25;24.50;67.30
69747;DHT22;57018;50.278;19.134;2022-08-25T18:53:51;24.50;67.30
69747;DHT22;57018;50.278;19.134;2022-08-25T18:56:18;24.50;67.30
69747;DHT22;57018;50.278;19.134;2022-08-25T18:58:45;24.40;67.60
69747;DHT22;57018;50.278;19.134;2022-08-25T19:01:16;24.30;68.70
69747;DHT22;57018;50.278;19.134;2022-08-25T19:03:42;24.20;69.30
69747;DHT22;57018;50.278;19.134;2022-08-25T19:06:09;24.20;69.70
69747;DHT22;57018;50.278;19.134;2022-08-25T19:08:36;24.00;70.30
69747;DHT22;57018;50.278;19.134;2022-08-25T19:11:04;24.00;70.90
69747;DHT22;57018;50.278;19.134;2022-08-25T19:13:31;23.90;70.60
69747;DHT22;57018;50.278;19.134;2022-08-25T19:15:57;24.00;71.80
69747;DHT22;57018;50.278;19.134;2022-08-25T19:18:24;23.90;71.60
69747;DHT22;57018;50.278;19.134;2022-08-25T19:20:50;23.90;72.50
69747;DHT22;57018;50.278;19.134;2022-08-25T19:23:16;23.90;72.20
69747;DHT22;57018;50.278;19.134;2022-08-25T19:25:42;23.80;72.00
69747;DHT22;57018;50.278;19.134;2022-08-25T19:28:10;23.80;72.00
69747;DHT22;57018;50.278;19.134;2022-08-25T19:30:37;23.80;71.90
69747;DHT22;57018;50.278;19.134;2022-08-25T19:33:05;23.80;72.30
69747;DHT22;57018;50.278;19.134;2022-08-25T19:35:35;23.70;73.00
69747;DHT22;57018;50.278;19.134;2022-08-25T19:38:02;23.60;73.20
69747;DHT22;57018;50.278;19.134;2022-08-25T19:40:29;23.60;74.50
69747;DHT22;57018;50.278;19.134;2022-08-25T19:42:55;23.50;74.50
69747;DHT22;57018;50.278;19.134;2022-08-25T19:45:23;23.40;74.70
69747;DHT22;57018;50.278;19.134;2022-08-25T19:47:50;23.40;74.90
69747;DHT22;57018;50.278;19.134;2022-08-25T19:50:18;23.30;75.50
69747;DHT22;57018;50.278;19.134;2022-08-25T19:52:45;23.10;75.90
69747;DHT22;57018;50.278;19.134;2022-08-25T19:55:11;23.10;75.90
69747;DHT22;57018;50.278;19.134;2022-08-25T19:57:38;23.00;76.70
69747;DHT22;57018;50.278;19.134;2022-08-25T20:00:07;23.00;77.20
69747;DHT22;57018;50.278;19.134;2022-08-25T20:02:33;22.90;78.50
69747;DHT22;57018;50.278;19.134;2022-08-25T20:05:00;22.80;78.60
69747;DHT22;57018;50.278;19.134;2022-08-25T20:07:28;22.70;78.60
69747;DHT22;57018;50.278;19.134;2022-08-25T20:09:56;22.60;79.00
69747;DHT22;57018;50.278;19.134;2022-08-25T20:12:23;22.50;79.30
69747;DHT22;57018;50.278;19.134;2022-08-25T20:14:51;22.50;79.70
69747;DHT22;57018;50.278;19.134;2022-08-25T20:17:18;22.30;80.40
69747;DHT22;57018;50.278;19.134;2022-08-25T20:19:46;22.30;81.10
69747;DHT22;57018;50.278;19.134;2022-08-25T20:22:12;22.30;80.90
69747;DHT22;57018;50.278;19.134;2022-08-25T20:24:39;22.20;81.80
69747;DHT22;57018;50.278;19.134;2022-08-25T20:27:24;22.10;82.40
69747;DHT22;57018;50.278;19.134;2022-08-25T20:29:50;22.00;82.80
69747;DHT22;57018;50.278;19.134;2022-08-25T20:32:17;21.90;83.10
69747;DHT22;57018;50.278;19.134;2022-08-25T20:34:45;21.80;83.60
69747;DHT22;57018;50.278;19.134;2022-08-25T20:37:11;21.70;83.90
69747;DHT22;57018;50.278;19.134;2022-08-25T20:39:38;21.80;83.90
69747;DHT22;57018;50.278;19.134;2022-08-25T20:42:05;21.60;84.60
69747;DHT22;57018;50.278;19.134;2022-08-25T20:44:33;21.60;84.50
69747;DHT22;57018;50.278;19.134;2022-08-25T20:47:01;21.50;85.40
69747;DHT22;57018;50.278;19.134;2022-08-25T20:49:28;21.60;85.70
69747;DHT22;57018;50.278;19.134;2022-08-25T20:51:57;21.40;85.60
69747;DHT22;57018;50.278;19.134;2022-08-25T20:54:25;21.40;86.20
69747;DHT22;57018;50.278;19.134;2022-08-25T20:56:52;21.30;86.90
69747;DHT22;57018;50.278;19.134;2022-08-25T20:59:20;21.30;87.20
69747;DHT22;57018;50.278;19.134;2022-08-25T21:01:47;21.20;87.40
69747;DHT22;57018;50.278;19.134;2022-08-25T21:04:16;21.30;87.20
69747;DHT22;57018;50.278;19.134;2022-08-25T21:06:44;21.20;87.50
69747;DHT22;57018;50.278;19.134;2022-08-25T21:09:13;21.30;87.20
69747;DHT22;57018;50.278;19.134;2022-08-25T21:11:39;21.10;87.40
69747;DHT22;57018;50.278;19.134;2022-08-25T21:14:07;21.00;88.10
69747;DHT22;57018;50.278;19.134;2022-08-25T21:16:37;21.10;88.60
69747;DHT22;57018;50.278;19.134;2022-08-25T21:19:04;21.00;88.60
69747;DHT22;57018;50.278;19.134;2022-08-25T21:21:30;21.00;88.50
69747;DHT22;57018;50.278;19.134;2022-08-25T21:23:57;21.00;89.20
69747;DHT22;57018;50.278;19.134;2022-08-25T21:26:26;20.90;88.90
69747;DHT22;57018;50.278;19.134;2022-08-25T21:28:58;20.90;88.80
69747;DHT22;57018;50.278;19.134;2022-08-25T21:31:26;20.80;90.90
69747;DHT22;57018;50.278;19.134;2022-08-25T21:33:54;20.80;91.30
69747;DHT22;57018;50.278;19.134;2022-08-25T21:36:22;20.70;91.40
69747;DHT22;57018;50.278;19.134;2022-08-25T21:38:50;20.80;91.40
69747;DHT22;57018;50.278;19.134;2022-08-25T21:41:19;20.80;91.80
69747;DHT22;57018;50.278;19.134;2022-08-25T21:43:46;20.90;91.10
69747;DHT22;57018;50.278;19.134;2022-08-25T21:46:16;20.90;89.80
69747;DHT22;57018;50.278;19.134;2022-08-25T21:48:43;21.00;89.70
69747;DHT22;57018;50.278;19.134;2022-08-25T21:51:20;20.90;89.20
69747;DHT22;57018;50.278;19.134;2022-08-25T21:53:47;20.90;90.00
69747;DHT22;57018;50.278;19.134;2022-08-25T21:56:17;20.80;91.40
69747;DHT22;57018;50.278;19.134;2022-08-25T21:58:45;20.70;91.60
69747;DHT22;57018;50.278;19.134;2022-08-25T22:01:17;20.60;91.60
69747;DHT22;57018;50.278;19.134;2022-08-25T22:03:45;20.60;91.80
69747;DHT22;57018;50.278;19.134;2022-08-25T22:06:13;20.60;92.60
69747;DHT22;57018;50.278;19.134;2022-08-25T22:08:41;20.60;93.00
69747;DHT22;57018;50.278;19.134;2022-08-25T22:11:08;20.60;93.30
69747;DHT22;57018;50.278;19.134;2022-08-25T22:13:36;20.70;93.30
69747;DHT22;57018;50.278;19.134;2022-08-25T22:16:03;20.60;92.60
69747;DHT22;57018;50.278;19.134;2022-08-25T22:18:29;20.60;93.10
69747;DHT22;57018;50.278;19.134;2022-08-25T22:20:56;20.60;92.20
69747;DHT22;57018;50.278;19.134;2022-08-25T22:23:23;20.50;90.30
69747;DHT22;57018;50.278;19.134;2022-08-25T22:25:50;20.50;88.70
69747;DHT22;57018;50.278;19.134;2022-08-25T22:28:17;20.60;90.50
69747;DHT22;57018;50.278;19.134;2022-08-25T22:30:43;20.60;89.00
69747;DHT22;57018;50.278;19.134;2022-08-25T22:33:09;20.60;89.10
69747;DHT22;57018;50.278;19.134;2022-08-25T22:35:36;20.70;87.70
69747;DHT22;57018;50.278;19.134;2022-08-25T22:38:03;20.70;85.60
69747;DHT22;57018;50.278;19.134;2022-08-25T22:40:33;20.60;85.90
69747;DHT22;57018;50.278;19.134;2022-08-25T22:43:02;20.70;87.20
69747;DHT22;57018;50.278;19.134;2022-08-25T22:45:29;20.70;85.80
69747;DHT22;57018;50.278;19.134;2022-08-25T22:47:55;20.80;85.20
69747;DHT22;57018;50.278;19.134;2022-08-25T22:50:21;20.80;84.50
69747;DHT22;57018;50.278;19.134;2022-08-25T22:52:48;20.90;84.40
69747;DHT22;57018;50.278;19.134;2022-08-25T22:55:14;20.80;85.50
69747;DHT22;57018;50.278;19.134;2022-08-25T22:57:41;20.80;85.50
69747;DHT22;57018;50.278;19.134;2022-08-25T23:00:10;20.80;85.60
69747;DHT22;57018;50.278;19.134;2022-08-25T23:02:39;20.80;85.90
69747;DHT22;57018;50.278;19.134;2022-08-25T23:05:07;20.80;85.90
69747;DHT22;57018;50.278;19.134;2022-08-25T23:07:37;20.70;86.10
69747;DHT22;57018;50.278;19.134;2022-08-25T23:10:08;20.70;86.50
69747;DHT22;57018;50.278;19.134;2022-08-25T23:12:37;20.60;86.60
69747;DHT22;57018;50.278;19.134;2022-08-25T23:15:08;20.60;87.10
69747;DHT22;57018;50.278;19.134;2022-08-25T23:17:34;20.60;86.90
69747;DHT22;57018;50.278;19.134;2022-08-25T23:20:04;20.50;87.50
69747;DHT22;57018;50.278;19.134;2022-08-25T23:22:32;20.40;88.40
69747;DHT22;57018;50.278;19.134;2022-08-25T23:24:59;20.40;88.10
69747;DHT22;57018;50.278;19.134;2022-08-25T23:27:25;20.30;88.60
69747;DHT22;57018;50.278;19.134;2022-08-25T23:29:51;20.20;89.20
69747;DHT22;57018;50.278;19.134;2022-08-25T23:32:17;20.20;89.30
69747;DHT22;57018;50.278;19.134;2022-08-25T23:34:44;20.20;89.40
69747;DHT22;57018;50.278;19.134;2022-08-25T23:37:12;20.10;89.10
69747;DHT22;57018;50.278;19.134;2022-08-25T23:39:38;20.00;89.60
69747;DHT22;57018;50.278;19.134;2022-08-25T23:42:09;20.00;90.20
69747;DHT22;57018;50.278;19.134;2022-08-25T23:44:35;20.00;90.00
69747;DHT22;57018;50.278;19.134;2022-08-25T23:47:03;20.00;90.00
69747;DHT22;57018;50.278;19.134;2022-08-25T23:49:31;19.90;90.50
69747;DHT22;57018;50.278;19.134;2022-08-25T23:51:57;19.90;90.10
69747;DHT22;57018;50.278;19.134;2022-08-25T23:54:23;19.90;90.90
69747;DHT22;57018;50.278;19.134;2022-08-25T23:56:50;19.80;91.20
69747;DHT22;57018;50.278;19.134;2022-08-25T23:59:16;19.80;91.50
